NCAR-RAP Real-Time Weather Data

Output produced by METARs form (23 July 2018  17:10 UTC)
found at http://weather.rap.ucar.edu/surface/
 
KLXL 231655Z AUTO 29007KT 253V323 10SM SCT018 SCT025 BKN037 25/18 A3006 RMK AO2
KLXL 231635Z AUTO 00000KT 10SM SCT018 BKN034 23/18 A3006 RMK AO2
KLXL 231615Z AUTO 28005KT 10SM SCT013 BKN028 OVC037 23/20 A3007 RMK AO2
KLXL 231555Z AUTO 29003KT 10SM BKN026 OVC031 22/20 A3007 RMK AO2
KLXL 231535Z AUTO 00000KT 10SM SCT010 BKN024 21/20 A3007 RMK AO2
KLXL 231515Z AUTO 00000KT 10SM BKN022 20/19 A3007 RMK AO2
 
KSTC 231653Z 29007KT 10SM OVC021 23/19 A3006 RMK AO2 SLP184 T02280194
KSTC 231553Z 23005KT 10SM OVC026 22/18 A3006 RMK AO2 SLP183 T02220183
KSTC 231514Z 15003KT 10SM OVC029 21/18 A3007 RMK AO2 T02060183
 
KCBG 231655Z AUTO 26005KT 5SM HZ SCT025 26/18 A3005 RMK AO2
KCBG 231635Z AUTO 28005KT 10SM CLR 26/18 A3005 RMK AO2
KCBG 231615Z AUTO 27003KT 10SM CLR 25/18 A3006 RMK AO2
KCBG 231555Z AUTO 00000KT 10SM BKN050 24/17 A3006 RMK AO2
KCBG 231535Z AUTO 22003KT 10SM BKN050 23/17 A3007 RMK AO2
KCBG 231515Z AUTO 00000KT 10SM SCT050 23/17 A3007 RMK AO2
 
KANE 231645Z 31005KT 10SM SCT032 SCT050 BKN110 27/18 A3005
KANE 231545Z 00000KT 10SM FEW110 26/18 A3006
 
KHCD 231655Z AUTO 29005KT 10SM OVC042 24/20 A3008 RMK AO2 T02350202
KHCD 231635Z AUTO 00000KT 10SM BKN042 BKN049 24/20 A3008 RMK AO2 T02350199
KHCD 231615Z AUTO 27005KT 10SM BKN040 BKN048 24/20 A3008 RMK AO2 T02350202
KHCD 231555Z AUTO 27003KT 10SM BKN038 OVC045 23/20 A3008 RMK AO2 T02300199
KHCD 231535Z AUTO 00000KT 10SM BKN038 BKN048 23/20 A3008 RMK AO2 T02300199
KHCD 231515Z AUTO 00000KT 10SM BKN040 OVC050 23/20 A3008 RMK AO2 T02290197
 
KMSP 231653Z 32010KT 9SM SCT032 SCT100 27/18 A3004 RMK AO2 SLP169 T02720178
KMSP 231553Z VRB06KT 9SM FEW030 SCT100 26/19 A3005 RMK AO2 SLP172 T02610189
 
KMIC 231705Z VRB03KT 10SM BKN029 OVC045 26/18 A3003 RMK AO2 T02610183
KMIC 231653Z 28008KT 260V360 10SM SCT038 27/18 A3004 RMK AO2 SLP167 T02670178
KMIC 231553Z 34006KT 10SM CLR 26/17 A3004 RMK AO2 SLP168 T02610172
 
KSTP 231653Z 34006KT 10SM FEW034 27/18 A3004 RMK AO2 SLP167 T02670178
KSTP 231553Z 34008KT 10SM CLR 26/18 A3005 RMK AO2 SLP169 T02560178
 
KSGS 231655Z AUTO 31004KT 10SM SCT034 26/17 A3004 RMK AO2 T02610166
KSGS 231635Z AUTO 30008KT 10SM SCT034 26/17 A3004 RMK AO2 T02590166
KSGS 231615Z AUTO 32004KT 10SM SCT031 26/17 A3004 RMK AO2 T02570171
KSGS 231555Z AUTO 06004KT 10SM SCT029 25/18 A3005 RMK AO2 T02500175
KSGS 231535Z AUTO 31005KT 10SM CLR 25/17 A3005 RMK AO2 T02470173
KSGS 231515Z AUTO 31006KT 10SM CLR 24/17 A3005 RMK AO2 T02430174
 
KPNM 231656Z AUTO 27006KT 10SM SCT020 BKN037 26/20 A3006 RMK AO2
KPNM 231655Z AUTO 28007KT 10SM SCT020 BKN037 26/20 A3006 RMK AO2
KPNM 231636Z AUTO 24004KT 10SM BKN037 26/19 A3006 RMK AO2
KPNM 231635Z AUTO 26005KT 10SM BKN037 26/19 A3006 RMK AO2
KPNM 231615Z AUTO 23005KT 10SM SCT044 SCT050 26/19 A3005 RMK AO2
KPNM 231556Z AUTO 25003KT 10SM BKN050 24/19 A3005 RMK AO2
KPNM 231555Z AUTO 26003KT 10SM BKN050 24/19 A3005 RMK AO2
KPNM 231536Z AUTO 22003KT 10SM SCT060 25/19 A3006 RMK AO2
KPNM 231535Z AUTO 20003KT 10SM SCT060 25/19 A3006 RMK AO2
KPNM 231515Z AUTO 00000KT 10SM SCT041 SCT060 23/19 A3007 RMK AO2
 
KLVN 231655Z AUTO 31006KT 10SM CLR 27/20 A3005 RMK AO2
KLVN 231635Z AUTO 32007KT 10SM SCT029 27/20 A3005 RMK AO2
KLVN 231615Z AUTO 30007KT 10SM SCT027 26/20 A3006 RMK AO2
KLVN 231555Z AUTO 31006KT 10SM CLR 26/20 A3006 RMK AO2
KLVN 231535Z AUTO 35006KT 10SM CLR 26/20 A3006 RMK AO2
KLVN 231515Z AUTO 31003KT 10SM CLR 25/20 A3006 RMK AO2
 
KMGG 231655Z AUTO 29004KT 10SM OVC030 24/20 A3007 RMK AO2 T02390202
KMGG 231635Z AUTO 29004KT 10SM BKN032 BKN048 OVC060 24/20 A3007 RMK AO2 T02400201
KMGG 231615Z AUTO 28003KT 10SM BKN034 BKN048 OVC060 23/20 A3007 RMK AO2 T02300197
KMGG 231555Z AUTO 00000KT 10SM OVC034 23/20 A3007 RMK AO2 T02270198
KMGG 231535Z AUTO 00000KT 10SM OVC036 23/20 A3007 RMK AO2 T02260197
KMGG 231515Z AUTO 00000KT 10SM BKN036 OVC041 22/19 A3008 RMK AO2 T02210194
 
KFCM 231653Z 31007KT 9SM FEW025 OVC044 26/19 A3004 RMK AO2 SLP169 T02610189
KFCM 231553Z 29005KT 10SM SCT025 26/18 A3005 RMK AO2 SLP171 T02560183
 
KCBG 231655Z AUTO 26005KT 5SM HZ SCT025 26/18 A3005 RMK AO2
KCBG 231635Z AUTO 28005KT 10SM CLR 26/18 A3005 RMK AO2
KCBG 231615Z AUTO 27003KT 10SM CLR 25/18 A3006 RMK AO2
KCBG 231555Z AUTO 00000KT 10SM BKN050 24/17 A3006 RMK AO2
KCBG 231535Z AUTO 22003KT 10SM BKN050 23/17 A3007 RMK AO2
KCBG 231515Z AUTO 00000KT 10SM SCT050 23/17 A3007 RMK AO2
 
KROS 231655Z AUTO 00000KT 10SM BKN048 24/18 A3006 RMK AO2 T02360177
KROS 231636Z AUTO 35003KT 10SM SCT050 23/17 A3006 RMK AO2 T02310173
KROS 231635Z AUTO 00000KT 10SM SCT050 23/17 A3006 RMK AO2 T02310174
KROS 231615Z AUTO 00000KT 10SM CLR 23/17 A3006 RMK AO2 T02250169
KROS 231556Z AUTO 22003KT 10SM CLR 22/17 A3006 RMK AO2 T02190167
KROS 231555Z AUTO 00000KT 10SM SCT100 22/17 A3006 RMK AO2 T02180166
KROS 231535Z AUTO 00000KT 7SM BKN100 22/16 A3007 RMK AO2 T02160162
KROS 231516Z AUTO 00000KT 10SM OVC100 20/16 A3007 RMK AO2 T02010159
KROS 231515Z AUTO 00000KT 10SM OVC100 20/16 A3007 RMK AO2 T01990158
 
KRGK 231655Z AUTO 35008KT 342V042 10SM SCT028 26/16 A3003 RMK AO2
KRGK 231635Z AUTO 35008KT 322V022 10SM SCT026 26/17 A3003 RMK AO2
KRGK 231615Z AUTO 32006KT 10SM SCT026 26/17 A3003 RMK AO2
KRGK 231555Z AUTO 35006KT 10SM CLR 26/16 A3004 RMK AO2
KRGK 231535Z AUTO 01004KT 10SM CLR 24/17 A3004 RMK AO2
KRGK 231515Z AUTO 31006KT 10SM CLR 24/16 A3004 RMK AO2
 
KULM 231655Z AUTO 31007KT 10SM SCT065 25/19 A3006 RMK AO2
KULM 231636Z AUTO 30006KT 10SM CLR 24/19 A3007 RMK AO2
KULM 231615Z AUTO 33008KT 10SM SCT090 24/19 A3007 RMK AO2
KULM 231555Z AUTO 29011KT 10SM CLR 25/19 A3007 RMK AO2
KULM 231536Z AUTO 27008KT 10SM SCT041 24/19 A3007 RMK AO2
KULM 231515Z AUTO 30009KT 10SM CLR 24/19 A3008 RMK AO2
 
KMKT 231656Z AUTO 34008KT 10SM FEW027 SCT042 26/19 A3007 RMK AO2 SLP177 T02560194
KMKT 231556Z AUTO 31005KT 10SM FEW080 SCT095 24/19 A3008 RMK AO2 SLP181 T02440194
 
KFBL 231655Z AUTO 32005KT 10SM SCT027 26/19 A3007 RMK AO2
KFBL 231635Z AUTO 33006KT 10SM SCT025 26/19 A3006 RMK AO2
KFBL 231615Z AUTO 26004KT 10SM SCT025 24/19 A3007 RMK AO2
KFBL 231555Z AUTO 26004KT 10SM SCT025 24/19 A3007 RMK AO2
KFBL 231535Z AUTO 29005KT 10SM CLR 24/19 A3007 RMK AO2
KFBL 231515Z AUTO 00000KT 10SM CLR 24/19 A3007 RMK AO2
 
KTOB 231655Z AUTO 31005KT 10SM SCT026 24/17 A3007 RMK AO2
KTOB 231635Z AUTO 34008KT 10SM SCT024 24/17 A3007 RMK AO2
KTOB 231615Z AUTO 32008KT 10SM SCT024 23/17 A3007 RMK AO2
KTOB 231555Z AUTO 32006KT 10SM SCT024 23/17 A3008 RMK AO2
KTOB 231535Z AUTO 32007KT 10SM CLR 23/17 A3007 RMK AO2
KTOB 231515Z AUTO 30006KT 10SM CLR 23/17 A3007 RMK AO2
 
KOWA 231635Z AUTO 30008G20KT 10SM SCT023 24/19 A3007 RMK AO2
KOWA 231618Z AUTO 31011G18KT 10SM SCT023 24/19 A3007 RMK AO2
KOWA 231554Z AUTO 31009G15KT 290V340 10SM CLR 24/19 A3007 RMK AO2
KOWA 231532Z AUTO 31007KT 10SM CLR 24/18 A3007 RMK AO2
KOWA 231515Z AUTO 32005KT 10SM CLR 23/18 A3008 RMK AO2
 
KRST 231654Z 32009KT 10SM FEW026 24/18 A3006 RMK AO2 SLP174 T02440178
KRST 231604Z 32007KT 10SM SCT023 24/19 A3007 RMK AO2 T02390189
KRST 231554Z 33009KT 10SM BKN023 23/18 A3007 RMK AO2 SLP177 T02330183
 
KONA 231655Z AUTO 36004KT 10SM CLR 25/17 A3002 RMK AO2
KONA 231636Z AUTO 31003KT 10SM CLR 25/17 A3003 RMK AO2
KONA 231635Z AUTO 31003KT 10SM CLR 25/17 A3003 RMK AO2
KONA 231616Z AUTO 30005KT 10SM CLR 25/18 A3003 RMK AO2
KONA 231555Z AUTO 36003KT 10SM CLR 23/17 A3003 RMK AO2
KONA 231536Z AUTO 30004KT 10SM CLR 23/17 A3004 RMK AO2
KONA 231535Z AUTO 30004KT 10SM CLR 23/17 A3004 RMK AO2
KONA 231516Z AUTO 34003KT 10SM CLR 23/18 A3004 RMK AO2
KONA 231515Z AUTO 00000KT 10SM CLR 23/17 A3004 RMK AO2
 
KFRM 231656Z AUTO 34008KT 10SM FEW030 26/19 A3008 RMK AO2 SLP183 T02560189
KFRM 231556Z AUTO 32009KT 10SM CLR 25/19 A3009 RMK AO2 SLP187 T02500189
 
KAEL 231655Z AUTO 33006KT 10SM SCT025 25/17 A3007 RMK AO2 P0001
KAEL 231635Z AUTO 35007KT 10SM SCT023 25/17 A3007 RMK AO2 P0001
KAEL 231615Z AUTO 34006KT 10SM BKN023 24/17 A3007 RMK AO2 P0001
KAEL 231555Z AUTO 32005KT 7SM SCT021 24/17 A3008 RMK AO2
KAEL 231535Z AUTO 32006KT 10SM SCT021 24/17 A3008 RMK AO2
KAEL 231515Z AUTO 31005KT 10SM CLR 23/17 A3008 RMK AO2
 
KAUM 231655Z AUTO 33004G08KT 10SM SCT030 24/18 A3006 RMK AO2
KAUM 231635Z AUTO 34006KT 10SM SCT026 24/18 A3007 RMK AO2
KAUM 231615Z AUTO 34006KT 10SM SCT026 24/18 A3006 RMK AO2
KAUM 231555Z AUTO 34009KT 10SM SCT026 23/18 A3007 RMK AO2
KAUM 231535Z AUTO 33006KT 10SM CLR 23/18 A3007 RMK AO2
KAUM 231515Z AUTO 33007KT 10SM CLR 23/18 A3007 RMK AO2
 
KLSE 231553Z 30007KT 10SM CLR 26/18 A3001 RMK AO2 SLP155 T02560183
 
KJMR 231655Z AUTO 00000KT 10SM SCT021 OVC037 23/18 A3007 RMK AO2
KJMR 231555Z AUTO 26003KT 10SM OVC043 22/17 A3007 RMK AO2
KJMR 231536Z AUTO 00000KT 10SM OVC045 21/16 A3008 RMK AO2
KJMR 231535Z AUTO 00000KT 10SM OVC045 21/16 A3008 RMK AO2
KJMR 231516Z AUTO 00000KT 10SM OVC047 20/15 A3008 RMK AO2
KJMR 231515Z AUTO 00000KT 10SM BKN047 20/15 A3008 RMK AO2